Time;durP1;ratioP1;P1;durP2;ratioP2;P2;SDS_P1;SDS_P2;PMS_P1;PMS_P2;Temp;Humidity;BMP_temperature;BMP_pressure;BME280_temperature;BME280_humidity;BME280_pressure;Samples;Min_cycle;Max_cycle;Signal;HPM_P1;HPM_P2
2022/11/24 00:02:59;;;;;;;90.13;28.48;;;;;;;;;;6252023;28;20041;-59
2022/11/24 00:06:06;;;;;;;87.43;28.13;;;;;;;;;;6261396;28;20406;-60
2022/11/24 00:09:07;;;;;;;93.10;29.40;;;;;;;;;;6253068;28;20059;-62
2022/11/24 00:12:07;;;;;;;95.40;30.23;;;;;;;;;;6253296;28;20045;-62
2022/11/24 00:15:08;;;;;;;95.43;31.50;;;;;;;;;;6259915;28;20055;-63
2022/11/24 00:18:09;;;;;;;88.95;29.67;;;;;;;;;;6258000;28;20056;-60
2022/11/24 00:21:10;;;;;;;94.68;30.63;;;;;;;;;;6252424;28;20104;-62
2022/11/24 00:24:11;;;;;;;101.10;29.83;;;;;;;;;;6252041;28;20052;-62
2022/11/24 00:27:11;;;;;;;99.25;30.98;;;;;;;;;;6254988;28;20419;-62
2022/11/24 00:30:12;;;;;;;96.25;30.75;;;;;;;;;;6254873;28;20049;-61
2022/11/24 00:33:13;;;;;;;96.40;29.02;;;;;;;;;;6251104;28;20059;-62
2022/11/24 00:36:15;;;;;;;84.53;27.25;;;;;;;;;;6253621;28;20491;-60
2022/11/24 00:39:16;;;;;;;97.65;31.60;;;;;;;;;;6256241;28;20065;-62
2022/11/24 00:42:17;;;;;;;98.00;30.85;;;;;;;;;;6253201;28;20057;-63
2022/11/24 00:45:17;;;;;;;83.68;27.67;;;;;;;;;;6253169;28;20223;-62
2022/11/24 00:48:20;;;;;;;80.18;26.55;;;;;;;;;;6253058;28;20041;-61
2022/11/24 00:51:25;;;;;;;77.22;24.52;;;;;;;;;;6260897;28;20048;-62
2022/11/24 00:54:26;;;;;;;75.70;24.33;;;;;;;;;;6262403;28;20053;-62
2022/11/24 00:57:27;;;;;;;83.72;25.00;;;;;;;;;;6253880;28;20053;-60
2022/11/24 01:00:28;;;;;;;83.15;24.50;;;;;;;;;;6254619;28;20037;-60
2022/11/24 01:03:28;;;;;;;75.18;25.23;;;;;;;;;;6258023;28;20398;-61
2022/11/24 01:06:31;;;;;;;76.05;24.20;;;;;;;;;;6249827;28;20128;-61
2022/11/24 01:09:31;;;;;;;77.97;24.33;;;;;;;;;;6255091;28;20052;-61
2022/11/24 01:12:33;;;;;;;73.45;23.15;;;;;;;;;;6251862;28;20053;-61
2022/11/24 01:15:35;;;;;;;79.13;25.30;;;;;;;;;;6257152;28;20056;-62
2022/11/24 01:18:36;;;;;;;77.57;24.30;;;;;;;;;;6243424;28;20140;-60
2022/11/24 01:21:36;;;;;;;79.32;26.70;;;;;;;;;;6259710;28;20063;-61
2022/11/24 01:24:37;;;;;;;102.13;31.55;;;;;;;;;;6266187;28;20052;-61
2022/11/24 01:27:37;;;;;;;99.15;32.10;;;;;;;;;;6256498;28;20048;-62
2022/11/24 01:30:38;;;;;;;86.82;29.60;;;;;;;;;;6263986;28;20048;-74
2022/11/24 01:33:39;;;;;;;82.15;27.23;;;;;;;;;;6258279;28;20045;-59
2022/11/24 01:36:39;;;;;;;80.63;24.33;;;;;;;;;;6251476;28;20439;-61
2022/11/24 01:39:40;;;;;;;82.30;23.52;;;;;;;;;;6261308;28;20052;-62
2022/11/24 01:42:50;;;;;;;72.78;22.60;;;;;;;;;;6256106;28;20045;-62
2022/11/24 01:45:53;;;;;;;76.55;21.90;;;;;;;;;;6251080;28;20056;-61
2022/11/24 01:48:59;;;;;;;73.20;22.92;;;;;;;;;;6256899;28;20107;-61
2022/11/24 01:52:08;;;;;;;72.95;23.38;;;;;;;;;;6257357;28;20049;-61
2022/11/24 01:55:15;;;;;;;72.35;22.75;;;;;;;;;;6249022;28;20037;-61
2022/11/24 01:58:26;;;;;;;72.38;22.00;;;;;;;;;;6256382;28;20499;-62
2022/11/24 02:01:28;;;;;;;71.85;22.27;;;;;;;;;;6265844;28;20191;-61
2022/11/24 02:04:31;;;;;;;74.40;23.48;;;;;;;;;;6249286;28;20181;-61
2022/11/24 02:07:34;;;;;;;71.40;22.95;;;;;;;;;;6252213;28;20140;-61
2022/11/24 02:10:35;;;;;;;71.07;24.23;;;;;;;;;;6252639;28;20041;-61
2022/11/24 02:13:38;;;;;;;65.45;23.52;;;;;;;;;;6255776;28;20513;-61
2022/11/24 02:16:41;;;;;;;76.32;23.08;;;;;;;;;;6256381;28;20478;-61
2022/11/24 02:19:53;;;;;;;67.47;21.80;;;;;;;;;;6264519;28;20140;-61
2022/11/24 02:23:14;;;;;;;67.78;23.65;;;;;;;;;;6247003;28;20052;-61
2022/11/24 02:26:30;;;;;;;77.15;23.33;;;;;;;;;;6247701;28;20562;-61
2022/11/24 02:29:30;;;;;;;80.78;26.30;;;;;;;;;;6248309;28;20514;-61
2022/11/24 02:32:32;;;;;;;83.32;25.60;;;;;;;;;;6255893;28;20072;-61
2022/11/24 02:35:32;;;;;;;77.90;26.67;;;;;;;;;;6249940;28;20124;-64
2022/11/24 02:38:34;;;;;;;87.70;27.13;;;;;;;;;;6255001;28;20050;-62
2022/11/24 02:41:35;;;;;;;86.28;25.38;;;;;;;;;;6255723;28;20115;-62
2022/11/24 02:44:39;;;;;;;81.90;23.60;;;;;;;;;;6257904;28;20045;-61
2022/11/24 02:47:40;;;;;;;89.65;26.02;;;;;;;;;;6255120;28;20057;-62
2022/11/24 02:50:40;;;;;;;83.50;24.05;;;;;;;;;;6258791;28;20578;-61
2022/11/24 02:53:41;;;;;;;87.93;24.45;;;;;;;;;;6255484;28;20053;-61
2022/11/24 02:56:42;;;;;;;80.55;24.70;;;;;;;;;;6249843;28;20420;-72
2022/11/24 02:59:42;;;;;;;82.38;25.58;;;;;;;;;;6250179;28;20046;-68
2022/11/24 03:02:43;;;;;;;87.40;26.58;;;;;;;;;;6251855;28;20047;-70
2022/11/24 03:05:44;;;;;;;80.53;26.40;;;;;;;;;;6251787;28;20104;-61
2022/11/24 03:08:45;;;;;;;87.93;26.05;;;;;;;;;;6252141;28;20476;-61
2022/11/24 03:11:45;;;;;;;85.57;25.15;;;;;;;;;;6247907;28;20057;-61
2022/11/24 03:14:46;;;;;;;94.00;27.27;;;;;;;;;;6249095;28;20412;-70
2022/11/24 03:17:46;;;;;;;91.10;27.05;;;;;;;;;;6266083;28;20079;-61
2022/11/24 03:20:47;;;;;;;90.00;27.58;;;;;;;;;;6257142;28;20048;-61
2022/11/24 03:23:48;;;;;;;92.22;28.10;;;;;;;;;;6248020;28;20406;-62
2022/11/24 03:26:48;;;;;;;89.90;25.35;;;;;;;;;;6251231;28;20070;-62
2022/11/24 03:29:49;;;;;;;88.82;27.13;;;;;;;;;;6255165;28;20691;-61
2022/11/24 03:32:52;;;;;;;89.00;28.80;;;;;;;;;;6255486;28;20132;-62
2022/11/24 03:35:52;;;;;;;91.00;29.13;;;;;;;;;;6250376;28;20045;-61
2022/11/24 03:38:53;;;;;;;96.38;29.05;;;;;;;;;;6249651;28;20064;-61
2022/11/24 03:41:54;;;;;;;109.80;30.73;;;;;;;;;;6248296;28;20052;-62
2022/11/24 03:44:54;;;;;;;112.78;31.40;;;;;;;;;;6263258;28;20045;-61
2022/11/24 03:47:55;;;;;;;101.25;29.02;;;;;;;;;;6249096;28;20445;-62
2022/11/24 03:50:58;;;;;;;103.00;31.10;;;;;;;;;;6247314;28;20036;-61
2022/11/24 03:53:59;;;;;;;102.68;34.13;;;;;;;;;;6256563;28;20045;-61
2022/11/24 03:57:00;;;;;;;110.03;33.67;;;;;;;;;;6252925;28;20506;-63
2022/11/24 04:00:00;;;;;;;109.65;32.35;;;;;;;;;;6251290;28;20050;-61
2022/11/24 04:03:01;;;;;;;106.15;33.08;;;;;;;;;;6258155;28;20052;-61
2022/11/24 04:06:02;;;;;;;100.60;30.85;;;;;;;;;;6253850;28;20052;-60
2022/11/24 04:09:03;;;;;;;92.03;30.42;;;;;;;;;;6246762;28;20049;-62
2022/11/24 04:15:23;;;;;;;105.68;31.98;;;;;;;;;;6253184;28;20045;-61
2022/11/24 04:18:23;;;;;;;224.23;57.50;;;;;;;;;;6250153;28;20124;-61
2022/11/24 04:21:24;;;;;;;239.23;63.53;;;;;;;;;;6248845;28;20458;-61
2022/11/24 04:24:24;;;;;;;204.57;56.95;;;;;;;;;;6248448;28;20056;-61
2022/11/24 04:27:25;;;;;;;116.80;34.20;;;;;;;;;;6248481;28;20103;-61
2022/11/24 04:30:27;;;;;;;93.38;28.42;;;;;;;;;;6248460;28;20045;-62
2022/11/24 04:33:28;;;;;;;97.68;29.83;;;;;;;;;;6250020;28;20055;-62
2022/11/24 04:36:28;;;;;;;92.43;26.58;;;;;;;;;;6248668;28;20053;-63
2022/11/24 04:39:29;;;;;;;87.18;26.88;;;;;;;;;;6266558;28;20087;-61
2022/11/24 04:42:30;;;;;;;99.13;29.00;;;;;;;;;;6260662;28;20049;-62
2022/11/24 04:45:30;;;;;;;88.25;25.83;;;;;;;;;;6253118;28;20594;-62
2022/11/24 04:48:31;;;;;;;91.72;27.23;;;;;;;;;;6254194;28;20051;-62
2022/11/24 04:51:32;;;;;;;83.90;24.45;;;;;;;;;;6250322;28;20057;-63
2022/11/24 04:54:33;;;;;;;96.68;26.52;;;;;;;;;;6259484;28;20045;-61
2022/11/24 04:57:34;;;;;;;79.78;24.10;;;;;;;;;;6254635;28;20057;-61
2022/11/24 05:00:35;;;;;;;95.13;26.83;;;;;;;;;;6253477;28;20041;-61
2022/11/24 05:03:36;;;;;;;80.05;25.73;;;;;;;;;;6251442;28;20083;-62
2022/11/24 05:06:37;;;;;;;80.75;24.50;;;;;;;;;;6249739;28;20049;-61
2022/11/24 05:10:33;;;;;;;89.25;27.13;;;;;;;;;;6250907;28;20501;-61
2022/11/24 05:12:58;;;;;;;85.28;24.58;;;;;;;;;;6246937;28;20103;-63
2022/11/24 05:16:00;;;;;;;97.10;27.95;;;;;;;;;;6257060;28;20045;-61
2022/11/24 05:19:00;;;;;;;86.10;25.42;;;;;;;;;;6247753;28;20061;-62
2022/11/24 05:22:01;;;;;;;98.00;27.63;;;;;;;;;;6248396;28;20092;-62
2022/11/24 05:25:02;;;;;;;96.03;27.95;;;;;;;;;;6251914;28;20057;-62
2022/11/24 05:28:07;;;;;;;94.32;28.05;;;;;;;;;;6251538;28;20072;-62
2022/11/24 05:31:09;;;;;;;94.47;26.50;;;;;;;;;;6250218;28;20049;-61
2022/11/24 05:34:10;;;;;;;93.28;27.75;;;;;;;;;;6255778;28;20052;-61
2022/11/24 05:37:10;;;;;;;95.68;29.23;;;;;;;;;;6256675;28;20226;-62
2022/11/24 05:40:11;;;;;;;100.25;28.70;;;;;;;;;;6253297;28;20499;-62
2022/11/24 05:43:15;;;;;;;110.18;30.90;;;;;;;;;;6249287;28;20045;-62
2022/11/24 05:46:16;;;;;;;107.70;29.65;;;;;;;;;;6262038;28;20101;-62
2022/11/24 05:49:17;;;;;;;99.13;28.55;;;;;;;;;;6254452;28;20488;-61
2022/11/24 05:52:17;;;;;;;98.93;27.70;;;;;;;;;;6251963;28;20084;-60
2022/11/24 05:55:18;;;;;;;106.25;29.30;;;;;;;;;;6253193;28;20045;-73
2022/11/24 05:58:19;;;;;;;100.20;29.58;;;;;;;;;;6260325;28;20041;-61
2022/11/24 06:01:20;;;;;;;107.75;32.10;;;;;;;;;;6261513;28;20053;-61
2022/11/24 06:04:20;;;;;;;114.75;33.00;;;;;;;;;;6263628;28;20052;-60
2022/11/24 06:07:21;;;;;;;114.40;34.70;;;;;;;;;;6266902;28;20049;-62
2022/11/24 06:10:25;;;;;;;112.57;32.53;;;;;;;;;;6264059;28;20160;-64
2022/11/24 06:13:25;;;;;;;97.03;31.23;;;;;;;;;;6267463;28;20405;-61
2022/11/24 06:16:26;;;;;;;115.25;31.95;;;;;;;;;;6268157;28;20065;-63
2022/11/24 06:19:27;;;;;;;119.97;33.75;;;;;;;;;;6248651;28;20673;-62
2022/11/24 06:22:27;;;;;;;115.88;32.15;;;;;;;;;;6249185;28;20060;-62
2022/11/24 06:25:28;;;;;;;111.20;32.72;;;;;;;;;;6252011;28;20049;-62
2022/11/24 06:28:29;;;;;;;111.93;32.55;;;;;;;;;;6247061;28;20549;-71
2022/11/24 06:31:30;;;;;;;106.95;29.90;;;;;;;;;;6251354;28;20049;-62
2022/11/24 06:34:31;;;;;;;119.40;34.25;;;;;;;;;;6250068;28;20631;-66
2022/11/24 06:37:35;;;;;;;113.75;33.20;;;;;;;;;;6246135;28;20048;-67
2022/11/24 06:40:35;;;;;;;117.60;33.65;;;;;;;;;;6259474;28;20045;-71
2022/11/24 06:43:36;;;;;;;111.05;31.90;;;;;;;;;;6255629;28;20484;-62
2022/11/24 06:46:37;;;;;;;105.78;30.02;;;;;;;;;;6244605;28;20041;-62
2022/11/24 06:49:37;;;;;;;115.55;32.13;;;;;;;;;;6249103;28;20052;-62
2022/11/24 06:52:38;;;;;;;105.18;30.83;;;;;;;;;;6248465;28;20162;-64
2022/11/24 06:55:39;;;;;;;108.53;30.08;;;;;;;;;;6250117;28;20044;-62
2022/11/24 06:58:42;;;;;;;103.18;29.05;;;;;;;;;;6250116;28;20152;-61
2022/11/24 07:01:42;;;;;;;94.75;27.67;;;;;;;;;;6248518;28;20053;-61
2022/11/24 07:04:43;;;;;;;97.15;27.77;;;;;;;;;;6256905;28;20439;-62
2022/11/24 07:07:44;;;;;;;93.28;26.92;;;;;;;;;;6248807;28;20049;-62
2022/11/24 07:10:44;;;;;;;100.18;27.63;;;;;;;;;;6248476;28;20143;-62
2022/11/24 07:13:46;;;;;;;92.43;26.00;;;;;;;;;;6250118;28;20045;-62
2022/11/24 07:16:47;;;;;;;87.88;25.20;;;;;;;;;;6247162;28;20049;-62
2022/11/24 07:19:47;;;;;;;94.80;26.27;;;;;;;;;;6249655;28;20567;-61
2022/11/24 07:22:48;;;;;;;86.50;25.38;;;;;;;;;;6248383;28;20048;-62
2022/11/24 07:25:48;;;;;;;94.68;26.67;;;;;;;;;;6248904;28;20411;-69
2022/11/24 07:28:50;;;;;;;84.07;23.88;;;;;;;;;;6256284;28;20052;-62
2022/11/24 07:31:50;;;;;;;80.90;23.85;;;;;;;;;;6249293;28;20132;-62
2022/11/24 07:34:51;;;;;;;86.03;25.40;;;;;;;;;;6259975;28;20407;-62
2022/11/24 07:37:58;;;;;;;79.47;23.70;;;;;;;;;;6251820;28;20048;-62
2022/11/24 07:41:04;;;;;;;87.03;24.77;;;;;;;;;;6246563;28;20618;-63
2022/11/24 07:44:05;;;;;;;85.32;24.38;;;;;;;;;;6248256;28;20041;-62
2022/11/24 07:47:06;;;;;;;75.20;23.10;;;;;;;;;;6266446;28;20074;-62
2022/11/24 07:50:11;;;;;;;78.45;23.23;;;;;;;;;;6266394;28;20041;-62
2022/11/24 07:53:12;;;;;;;93.68;25.13;;;;;;;;;;6266161;28;20418;-62
2022/11/24 07:56:13;;;;;;;76.55;23.77;;;;;;;;;;6266907;28;20077;-62
2022/11/24 07:59:13;;;;;;;83.78;23.73;;;;;;;;;;6248577;28;20060;-62
2022/11/24 08:02:14;;;;;;;79.57;24.88;;;;;;;;;;6245731;28;20126;-62
2022/11/24 08:05:15;;;;;;;88.05;24.98;;;;;;;;;;6248504;28;20041;-62
2022/11/24 08:08:17;;;;;;;91.00;24.20;;;;;;;;;;6247515;28;20049;-62
2022/11/24 08:11:18;;;;;;;82.63;25.40;;;;;;;;;;6249234;28;20051;-62
2022/11/24 08:14:18;;;;;;;97.68;26.05;;;;;;;;;;6253781;28;20396;-62
2022/11/24 08:17:19;;;;;;;87.05;24.60;;;;;;;;;;6240775;28;20136;-67
2022/11/24 08:20:19;;;;;;;78.65;23.40;;;;;;;;;;6251285;28;20056;-63
2022/11/24 08:23:20;;;;;;;76.38;22.42;;;;;;;;;;6252091;28;20127;-62
2022/11/24 08:26:23;;;;;;;78.75;23.35;;;;;;;;;;6253168;28;20049;-62
2022/11/24 08:29:28;;;;;;;72.55;22.08;;;;;;;;;;6254548;28;20115;-62
2022/11/24 08:32:29;;;;;;;84.10;23.73;;;;;;;;;;6252551;28;20393;-63
2022/11/24 08:35:29;;;;;;;75.25;22.20;;;;;;;;;;6263873;28;20094;-62
2022/11/24 08:38:30;;;;;;;69.68;20.85;;;;;;;;;;6268618;28;20373;-62
2022/11/24 08:41:31;;;;;;;75.28;22.00;;;;;;;;;;6270585;28;20068;-60
2022/11/24 08:44:31;;;;;;;70.43;21.55;;;;;;;;;;6270501;28;20053;-63
2022/11/24 08:47:32;;;;;;;67.47;21.90;;;;;;;;;;6270005;28;20059;-61
2022/11/24 08:50:34;;;;;;;72.20;20.48;;;;;;;;;;6266484;28;20067;-67
2022/11/24 08:53:35;;;;;;;69.55;22.40;;;;;;;;;;6254134;28;20048;-62
2022/11/24 08:56:36;;;;;;;73.00;22.75;;;;;;;;;;6251599;28;20053;-61
2022/11/24 08:59:36;;;;;;;74.40;21.92;;;;;;;;;;6251674;28;20037;-62
2022/11/24 09:02:37;;;;;;;68.85;22.30;;;;;;;;;;6251246;28;20052;-63
2022/11/24 09:05:38;;;;;;;66.00;21.08;;;;;;;;;;6248866;28;20124;-62
2022/11/24 09:08:39;;;;;;;63.63;21.90;;;;;;;;;;6248696;28;20047;-65
2022/11/24 09:11:40;;;;;;;70.85;24.33;;;;;;;;;;6252111;28;20385;-60
2022/11/24 09:14:40;;;;;;;73.30;23.95;;;;;;;;;;6250914;28;20049;-62
2022/11/24 09:17:42;;;;;;;76.30;22.67;;;;;;;;;;6251733;28;20055;-63
2022/11/24 09:20:42;;;;;;;74.57;23.73;;;;;;;;;;6259764;28;20042;-63
2022/11/24 09:23:45;;;;;;;73.82;24.95;;;;;;;;;;6265658;28;20056;-62
2022/11/24 09:26:45;;;;;;;79.80;27.30;;;;;;;;;;6268480;28;20071;-62
2022/11/24 09:29:46;;;;;;;79.03;25.05;;;;;;;;;;6266674;28;20262;-62
2022/11/24 09:32:46;;;;;;;83.47;26.90;;;;;;;;;;6269168;28;20051;-62
2022/11/24 09:35:49;;;;;;;79.60;27.05;;;;;;;;;;6268846;28;20407;-62
2022/11/24 09:38:49;;;;;;;106.50;40.45;;;;;;;;;;6267686;28;20045;-62
2022/11/24 09:42:11;;;;;;;87.45;27.88;;;;;;;;;;6269276;28;20395;-62
2022/11/24 09:45:23;;;;;;;91.78;29.17;;;;;;;;;;6253156;28;20164;-67
2022/11/24 09:48:32;;;;;;;93.50;29.05;;;;;;;;;;6252191;28;20144;-63
2022/11/24 09:51:33;;;;;;;92.85;28.38;;;;;;;;;;6251203;28;20523;-63
2022/11/24 09:54:35;;;;;;;97.90;29.25;;;;;;;;;;6263447;28;20072;-61
2022/11/24 09:57:38;;;;;;;107.90;32.50;;;;;;;;;;6268585;28;20064;-62
2022/11/24 10:00:40;;;;;;;91.40;29.60;;;;;;;;;;6260881;28;20090;-63
2022/11/24 10:03:44;;;;;;;107.45;33.97;;;;;;;;;;6250033;28;20045;-62
2022/11/24 10:06:51;;;;;;;103.55;32.13;;;;;;;;;;6250505;28;20518;-62
2022/11/24 10:09:54;;;;;;;104.05;32.38;;;;;;;;;;6251389;28;20043;-59
2022/11/24 10:13:10;;;;;;;108.95;32.55;;;;;;;;;;6249452;28;20488;-61
2022/11/24 10:16:31;;;;;;;106.95;32.35;;;;;;;;;;6250051;28;20057;-63
2022/11/24 10:19:54;;;;;;;108.10;33.10;;;;;;;;;;6249388;28;20046;-62
2022/11/24 10:23:13;;;;;;;;;;;;;;;;;;6247842;28;20440;-63
2022/11/24 10:26:28;;;;;;;110.07;34.15;;;;;;;;;;6248416;28;19928;-62
2022/11/24 10:29:40;;;;;;;117.80;35.03;;;;;;;;;;6247899;28;20050;-62
2022/11/24 10:32:54;;;;;;;125.87;37.77;;;;;;;;;;6248570;28;20057;-60
2022/11/24 10:36:02;;;;;;;111.68;34.67;;;;;;;;;;6247065;28;20294;-63
2022/11/24 10:39:14;;;;;;;103.18;32.22;;;;;;;;;;6247404;28;20048;-62
2022/11/24 10:42:24;;;;;;;102.85;32.45;;;;;;;;;;6247361;28;20067;-62
2022/11/24 10:45:27;;;;;;;114.07;32.38;;;;;;;;;;6253058;28;20064;-62
2022/11/24 10:48:36;;;;;;;109.00;33.47;;;;;;;;;;6250177;28;20597;-63
2022/11/24 10:52:05;;;;;;;107.78;35.17;;;;;;;;;;6247774;28;20053;-62
2022/11/24 10:55:06;;;;;;;117.60;34.15;;;;;;;;;;6247160;28;20416;-63
2022/11/24 10:58:15;;;;;;;110.53;32.70;;;;;;;;;;6251162;28;20148;-64
2022/11/24 11:01:16;;;;;;;108.78;34.10;;;;;;;;;;6236873;28;20049;-62
2022/11/24 11:04:21;;;;;;;101.25;31.10;;;;;;;;;;6248283;28;20064;-63
2022/11/24 11:07:24;;;;;;;105.78;32.63;;;;;;;;;;6245085;28;20412;-62
2022/11/24 11:10:25;;;;;;;107.90;32.05;;;;;;;;;;6249333;28;20455;-62
2022/11/24 11:13:28;;;;;;;108.75;33.05;;;;;;;;;;6248008;28;20045;-63
2022/11/24 11:16:32;;;;;;;112.85;33.83;;;;;;;;;;6247165;28;20369;-62
2022/11/24 11:19:42;;;;;;;102.07;32.50;;;;;;;;;;6248452;28;20057;-62
2022/11/24 11:22:46;;;;;;;105.93;33.92;;;;;;;;;;6247923;28;20045;-62
2022/11/24 11:25:47;;;;;;;109.40;34.13;;;;;;;;;;6250307;28;20047;-62
2022/11/24 11:29:06;;;;;;;107.88;33.10;;;;;;;;;;6250213;28;20049;-62
2022/11/24 11:32:25;;;;;;;102.30;30.48;;;;;;;;;;6248873;28;20052;-62
2022/11/24 11:35:28;;;;;;;103.63;31.40;;;;;;;;;;6248804;28;20127;-63
2022/11/24 11:38:35;;;;;;;112.53;35.55;;;;;;;;;;6248076;28;20052;-62
2022/11/24 11:41:42;;;;;;;106.40;33.03;;;;;;;;;;6255455;28;20212;-62
2022/11/24 11:45:04;;;;;;;118.30;35.75;;;;;;;;;;6247306;28;20059;-66
2022/11/24 11:48:06;;;;;;;;;;;;;;;;;;6252784;28;20054;-62
2022/11/24 11:51:31;;;;;;;111.57;34.22;;;;;;;;;;6254852;28;20039;-62
2022/11/24 11:55:11;;;;;;;110.80;33.28;;;;;;;;;;6254570;28;20125;-62
2022/11/24 11:58:25;;;;;;;114.30;33.72;;;;;;;;;;6253160;28;20049;-72
2022/11/24 12:01:58;;;;;;;113.55;33.00;;;;;;;;;;6252362;28;20496;-62
2022/11/24 12:05:07;;;;;;;123.60;35.78;;;;;;;;;;6254115;28;20461;-62
2022/11/24 12:08:14;;;;;;;110.85;33.63;;;;;;;;;;6253069;28;20042;-62
2022/11/24 12:11:20;;;;;;;125.57;36.85;;;;;;;;;;6251129;28;20053;-61
2022/11/24 12:14:40;;;;;;;121.05;36.10;;;;;;;;;;6251572;28;20060;-62
2022/11/24 12:17:50;;;;;;;123.40;37.85;;;;;;;;;;6251343;28;20518;-61
2022/11/24 12:21:17;;;;;;;126.80;37.80;;;;;;;;;;6248773;28;20041;-62
2022/11/24 12:24:34;;;;;;;125.00;39.08;;;;;;;;;;6252362;28;20479;-61
2022/11/24 12:28:02;;;;;;;115.85;35.47;;;;;;;;;;6251478;28;20080;-61
2022/11/24 12:31:05;;;;;;;126.40;36.78;;;;;;;;;;6251065;28;20060;-62
2022/11/24 12:34:23;;;;;;;120.13;35.53;;;;;;;;;;6252746;28;20049;-61
2022/11/24 12:37:38;;;;;;;109.22;34.83;;;;;;;;;;6253545;28;20056;-62
2022/11/24 12:40:54;;;;;;;126.80;37.92;;;;;;;;;;6254715;28;20071;-61
2022/11/24 12:43:58;;;;;;;116.38;36.55;;;;;;;;;;6265264;28;20068;-61
2022/11/24 12:47:07;;;;;;;119.03;35.05;;;;;;;;;;6270288;28;20267;-62
2022/11/24 12:50:18;;;;;;;105.13;34.80;;;;;;;;;;6269796;28;20159;-62
2022/11/24 12:53:25;;;;;;;109.80;33.00;;;;;;;;;;6268757;28;20402;-63
2022/11/24 12:56:34;;;;;;;109.38;34.80;;;;;;;;;;6269531;28;20071;-61
2022/11/24 12:59:44;;;;;;;118.25;34.65;;;;;;;;;;6269973;28;20076;-62
2022/11/24 13:03:22;;;;;;;113.90;33.13;;;;;;;;;;6269177;28;20572;-62
2022/11/24 13:06:28;;;;;;;113.60;35.10;;;;;;;;;;6266291;28;20500;-62
2022/11/24 13:09:29;;;;;;;111.00;34.67;;;;;;;;;;6270346;28;20044;-62
2022/11/24 13:12:30;;;;;;;111.07;35.17;;;;;;;;;;6271863;28;20407;-62
2022/11/24 13:15:50;;;;;;;109.90;34.08;;;;;;;;;;6254930;28;20045;-61
2022/11/24 13:18:56;;;;;;;107.88;33.83;;;;;;;;;;6251815;28;20056;-62
2022/11/24 13:22:06;;;;;;;105.28;33.05;;;;;;;;;;6253159;28;20120;-63
2022/11/24 13:25:18;;;;;;;101.45;33.28;;;;;;;;;;6252567;28;20056;-62
2022/11/24 13:29:00;;;;;;;100.90;33.67;;;;;;;;;;6249875;28;20045;-62
2022/11/24 13:32:00;;;;;;;98.55;32.03;;;;;;;;;;6251465;28;20096;-63
2022/11/24 13:35:10;;;;;;;96.68;33.05;;;;;;;;;;6251409;28;20052;-62
2022/11/24 13:38:38;;;;;;;103.43;32.63;;;;;;;;;;6249662;28;20393;-63
2022/11/24 13:41:48;;;;;;;91.40;31.58;;;;;;;;;;6248740;28;20714;-63
2022/11/24 13:44:57;;;;;;;105.32;32.53;;;;;;;;;;6252599;28;20060;-63
2022/11/24 13:47:57;;;;;;;99.68;31.58;;;;;;;;;;6268493;28;20057;-60
2022/11/24 13:51:00;;;;;;;96.88;30.80;;;;;;;;;;6232378;28;20455;-65
2022/11/24 13:54:01;;;;;;;101.15;31.20;;;;;;;;;;6245249;28;20063;-64
2022/11/24 13:57:37;;;;;;;97.63;31.48;;;;;;;;;;6243694;28;20059;-69
2022/11/24 14:01:01;;;;;;;93.57;31.02;;;;;;;;;;6261632;28;20063;-69
2022/11/24 14:04:16;;;;;;;106.32;32.45;;;;;;;;;;6261349;28;20041;-70
2022/11/24 14:07:17;;;;;;;97.03;31.75;;;;;;;;;;6261966;28;20044;-70
2022/11/24 14:10:29;;;;;;;97.53;30.02;;;;;;;;;;6264967;28;20432;-66
2022/11/24 14:13:31;;;;;;;106.97;31.20;;;;;;;;;;6247011;28;20052;-66
2022/11/24 14:16:32;;;;;;;96.57;30.92;;;;;;;;;;6250902;28;20068;-67
2022/11/24 14:19:33;;;;;;;104.63;34.05;;;;;;;;;;6247737;28;20057;-60
2022/11/24 14:22:40;;;;;;;98.80;31.60;;;;;;;;;;6266425;28;20093;-61
2022/11/24 14:25:47;;;;;;;106.95;32.85;;;;;;;;;;6265932;28;20052;-65
2022/11/24 14:28:48;;;;;;;101.65;32.22;;;;;;;;;;6257993;28;20052;-70
2022/11/24 14:31:54;;;;;;;100.03;33.30;;;;;;;;;;6255505;28;20064;-67
2022/11/24 14:34:55;;;;;;;98.38;33.25;;;;;;;;;;6261880;28;20049;-73
2022/11/24 14:37:56;;;;;;;105.30;33.72;;;;;;;;;;6263389;28;20060;-62
2022/11/24 14:41:14;;;;;;;92.90;32.20;;;;;;;;;;6262596;28;20120;-69
2022/11/24 14:44:27;;;;;;;96.90;30.92;;;;;;;;;;6261770;28;20062;-69
2022/11/24 14:47:30;;;;;;;96.38;33.13;;;;;;;;;;6265758;28;20426;-63
2022/11/24 14:50:30;;;;;;;105.65;33.28;;;;;;;;;;6259430;28;20075;-70
2022/11/24 14:53:32;;;;;;;97.45;30.98;;;;;;;;;;6263748;28;20044;-65
2022/11/24 14:56:37;;;;;;;97.57;33.20;;;;;;;;;;6245713;28;20128;-66
2022/11/24 14:59:38;;;;;;;106.63;33.67;;;;;;;;;;6262051;28;20053;-70
2022/11/24 15:02:47;;;;;;;104.57;31.98;;;;;;;;;;6259548;28;20052;-65
2022/11/24 15:05:59;;;;;;;104.35;32.13;;;;;;;;;;6263956;28;20135;-64
2022/11/24 15:09:00;;;;;;;106.57;35.55;;;;;;;;;;6263974;28;20072;-62
2022/11/24 15:12:08;;;;;;;97.15;32.75;;;;;;;;;;6258416;28;20056;-65
2022/11/24 15:15:12;;;;;;;99.18;32.67;;;;;;;;;;6260433;28;20045;-66
2022/11/24 15:18:25;;;;;;;124.95;38.95;;;;;;;;;;6260345;28;20156;-64
2022/11/24 15:21:33;;;;;;;116.30;36.50;;;;;;;;;;6263508;28;20483;-66
2022/11/24 15:24:48;;;;;;;116.10;38.72;;;;;;;;;;6260752;28;20058;-63
2022/11/24 15:27:49;;;;;;;130.82;43.50;;;;;;;;;;6264269;28;20094;-70
2022/11/24 15:30:55;;;;;;;144.43;45.20;;;;;;;;;;6247085;28;20468;-68
2022/11/24 15:33:56;;;;;;;146.15;45.03;;;;;;;;;;6259967;28;20519;-71
2022/11/24 15:36:56;;;;;;;169.85;53.60;;;;;;;;;;6263016;28;20046;-66
2022/11/24 15:39:57;;;;;;;165.00;54.22;;;;;;;;;;6264095;28;20526;-63
2022/11/24 15:42:57;;;;;;;151.35;50.83;;;;;;;;;;6261965;28;20124;-63
2022/11/24 15:45:59;;;;;;;144.77;48.85;;;;;;;;;;6250829;28;20055;-64
2022/11/24 15:48:59;;;;;;;157.13;52.00;;;;;;;;;;6262330;28;20048;-66
2022/11/24 15:52:00;;;;;;;168.30;54.90;;;;;;;;;;6262084;28;20069;-64
2022/11/24 15:55:03;;;;;;;171.70;56.03;;;;;;;;;;6259544;28;20048;-62
2022/11/24 15:58:03;;;;;;;156.07;52.25;;;;;;;;;;6261239;28;20139;-69
2022/11/24 16:01:04;;;;;;;159.15;51.95;;;;;;;;;;6261082;28;20064;-65
2022/11/24 16:04:05;;;;;;;160.65;51.88;;;;;;;;;;6257988;28;20060;-70
2022/11/24 16:07:12;;;;;;;163.75;56.05;;;;;;;;;;6263477;28;20045;-65
2022/11/24 16:10:27;;;;;;;184.15;61.38;;;;;;;;;;6261855;28;21431;-63
2022/11/24 16:13:27;;;;;;;180.35;62.53;;;;;;;;;;6259912;28;20053;-65
2022/11/24 16:16:28;;;;;;;191.65;66.55;;;;;;;;;;6260523;28;20075;-64
2022/11/24 16:19:29;;;;;;;189.27;66.28;;;;;;;;;;6261311;28;20201;-64
2022/11/24 16:22:29;;;;;;;185.68;63.20;;;;;;;;;;6261227;28;20497;-73
2022/11/24 16:25:31;;;;;;;186.80;64.55;;;;;;;;;;6240465;28;20044;-62
2022/11/24 16:28:31;;;;;;;192.43;67.07;;;;;;;;;;6262102;28;20129;-67
2022/11/24 16:31:32;;;;;;;188.32;64.65;;;;;;;;;;6258113;28;20409;-69
2022/11/24 16:34:32;;;;;;;170.82;61.90;;;;;;;;;;6244939;28;20061;-64
2022/11/24 16:37:33;;;;;;;186.05;63.75;;;;;;;;;;6251279;28;20143;-67
2022/11/24 16:40:34;;;;;;;191.93;66.03;;;;;;;;;;6251163;28;20540;-70
2022/11/24 16:43:34;;;;;;;182.70;61.65;;;;;;;;;;6247516;28;20051;-64
2022/11/24 16:46:35;;;;;;;178.48;60.90;;;;;;;;;;6243003;28;20058;-70
2022/11/24 16:49:36;;;;;;;174.55;57.63;;;;;;;;;;6244067;28;20041;-71
2022/11/24 16:52:37;;;;;;;174.43;57.30;;;;;;;;;;6247845;28;20048;-66
2022/11/24 16:55:38;;;;;;;167.67;57.87;;;;;;;;;;6245684;28;20054;-63
2022/11/24 16:58:39;;;;;;;172.98;56.95;;;;;;;;;;6244829;28;20047;-72
2022/11/24 17:01:40;;;;;;;183.43;58.10;;;;;;;;;;6245915;28;20060;-63
2022/11/24 17:04:41;;;;;;;176.32;58.53;;;;;;;;;;6243711;28;20056;-67
2022/11/24 17:07:41;;;;;;;173.13;56.03;;;;;;;;;;6245011;28;20598;-66
2022/11/24 17:10:42;;;;;;;187.43;57.70;;;;;;;;;;6232275;28;20056;-67
2022/11/24 17:13:44;;;;;;;181.93;59.50;;;;;;;;;;6241592;28;20554;-66
2022/11/24 17:16:44;;;;;;;188.63;60.55;;;;;;;;;;6247092;28;20101;-65
2022/11/24 17:19:45;;;;;;;201.02;62.75;;;;;;;;;;6245117;28;20065;-66
2022/11/24 17:22:46;;;;;;;211.02;66.25;;;;;;;;;;6243391;28;20053;-68
2022/11/24 17:25:47;;;;;;;197.63;64.32;;;;;;;;;;6244894;28;20168;-73
2022/11/24 17:28:48;;;;;;;209.07;65.07;;;;;;;;;;6227508;28;20052;-67
2022/11/24 17:31:49;;;;;;;228.18;69.47;;;;;;;;;;6241672;28;20078;-70
2022/11/24 17:34:49;;;;;;;247.20;76.13;;;;;;;;;;6242282;28;20049;-68
2022/11/24 17:37:50;;;;;;;216.23;68.82;;;;;;;;;;6246041;28;20049;-70
2022/11/24 17:40:51;;;;;;;200.32;67.03;;;;;;;;;;6246773;28;20048;-64
2022/11/24 17:43:54;;;;;;;201.95;63.65;;;;;;;;;;6239431;28;20614;-65
2022/11/24 17:46:55;;;;;;;;;;;;;;;;;;6250046;28;20504;-67
2022/11/24 17:49:56;;;;;;;186.30;59.53;;;;;;;;;;6250848;28;20002;-70